Tenma — JD2303 — position and weather

sailwx.info

Track history (hours):
 
Tides and Currents Weather Stations Pressure Air Temp Water Temp Dewpoint Dewpoint Depression Visibility Wind Speed Wind Dir Waves Ship Positions

Tenma

Last reported at 2018-Jan-24 01:30 UTC. Time now 2018-Jan-24 01:47 UTC.
Position N 34°38' E 135°23'.

Length 80 m; draft 3.6 m.

Type: Cargo ship. MMSI: 431402072.

Date/timePositionNaut miles runAvg speedWind from/ knotsBaromVisibWave heightAir tempDewpointWater temp
2018-Jan-24 01:30N 34°38' E 135°23'612.7
2018-Jan-24 01:00N 34°39' E 135°16'1 2.7
2018-Jan-24 00:30N 34°40' E 135°14'0 0.0
2018-Jan-24 00:00N 34°40' E 135°14'0 0.0
2018-Jan-23 23:30N 34°40' E 135°14'0 0.5
2018-Jan-23 23:00N 34°39' E 135°15'1 2.3
2018-Jan-23 22:30N 34°38' E 135°15'0 0.0
2018-Jan-23 22:00N 34°38' E 135°15'0 0.0
2018-Jan-23 21:30N 34°38' E 135°15'0 0.0
2018-Jan-23 21:00N 34°38' E 135°15'0 0.0
2018-Jan-23 20:30N 34°38' E 135°15'0 0.0
2018-Jan-23 20:00N 34°38' E 135°15'0 0.0
2018-Jan-23 19:30N 34°38' E 135°15'0 0.0
2018-Jan-23 19:00N 34°38' E 135°15'0 0.1
2018-Jan-23 18:30N 34°38' E 135°15'510.7
2018-Jan-23 18:00N 34°36' E 135°09'611.7
2018-Jan-23 17:30N 34°36' E 135°02'511.0
2018-Jan-23 17:00N 34°35' E 134°55'611.5
2018-Jan-23 16:30N 34°33' E 134°49'612.0
2018-Jan-23 16:00N 34°30' E 134°42'612.4
2018-Jan-23 15:30N 34°28' E 134°35'612.7
2018-Jan-23 15:00N 34°26' E 134°28'612.7
2018-Jan-23 14:30N 34°24' E 134°21'81 9.3
2018-Jan-23 05:45N 34°01' E 132°46'613.6
2018-Jan-23 05:17N 33°55' E 132°43'412.4
2018-Jan-23 04:57N 33°52' E 132°41'1 0.9
2018-Jan-23 03:25N 33°51' E 132°42'8 8.3
2018-Jan-23 02:29N 33°58' E 132°44'82 4.0
2018-Jan-22 06:09N 34°25' E 134°18'212.8
2018-Jan-22 05:59N 34°25' E 134°20'712.9
2018-Jan-22 05:28N 34°27' E 134°28'613.3
2018-Jan-22 05:00N 34°29' E 134°35'713.5
2018-Jan-22 04:30N 34°32' E 134°43'714.8
2018-Jan-22 04:01N 34°35' E 134°51'715.0
2018-Jan-22 03:31N 34°38' E 134°59'714.0
2018-Jan-22 03:00N 34°37' E 135°08'612.7
2018-Jan-22 02:30N 34°39' E 135°15'1 1.6
2018-Jan-22 02:00N 34°39' E 135°14'0 0.0
2018-Jan-22 01:31N 34°39' E 135°14'0 0.0
2018-Jan-22 01:01N 34°39' E 135°14'0 0.2
2018-Jan-22 00:30N 34°39' E 135°15'1 1.5
2018-Jan-22 00:00N 34°39' E 135°15'0 0.0
2018-Jan-21 23:31N 34°39' E 135°15'0 0.0
2018-Jan-21 23:00N 34°39' E 135°15'0 0.0
2018-Jan-21 22:30N 34°39' E 135°15'0 0.0
2018-Jan-21 22:00N 34°39' E 135°15'0 0.0
2018-Jan-21 21:30N 34°39' E 135°15'0 0.0
2018-Jan-21 21:00N 34°39' E 135°15'0 0.0
2018-Jan-21 20:31N 34°39' E 135°15'0 0.0
2018-Jan-21 20:00N 34°39' E 135°15'3 5.4
2018-Jan-21 19:30N 34°37' E 135°12'612.8
2018-Jan-21 19:01N 34°35' E 135°05'714.0
2018-Jan-21 18:31N 34°36' E 134°56'714.3
2018-Jan-21 18:00N 34°33' E 134°49'713.0
2018-Jan-21 17:31N 34°30' E 134°41'612.8
2018-Jan-21 17:00N 34°28' E 134°34'612.8
2018-Jan-21 16:30N 34°25' E 134°27'612.7
2018-Jan-21 16:00N 34°24' E 134°19'7910.9
2018-Jan-21 08:45N 34°02' E 132°47'311.2
2018-Jan-21 08:30N 33°60' E 132°45'510.7
2018-Jan-21 08:00N 33°56' E 132°41'611.2
2018-Jan-21 07:29N 33°53' E 132°35'911.9
2018-Jan-21 06:43N 33°50' E 132°24'311.5
2018-Jan-21 06:27N 33°50' E 132°21'612.3
2018-Jan-21 05:56N 33°49' E 132°13'612.2
2018-Jan-21 05:27N 33°47' E 132°07'712.9
2018-Jan-21 04:55N 33°45' E 131°58'613.6
2018-Jan-21 04:30N 33°46' E 131°52'713.8
2018-Jan-21 04:01N 33°48' E 131°44'713.8
2018-Jan-21 03:31N 33°49' E 131°36'713.3
2018-Jan-21 03:00N 33°51' E 131°28'713.1
2018-Jan-21 02:30N 33°52' E 131°20'612.7
2018-Jan-21 02:00N 33°52' E 131°13'612.3
2018-Jan-21 01:31N 33°56' E 131°06'611.5
2018-Jan-21 01:01N 33°58' E 131°00'0 0.3
2018-Jan-21 00:30N 33°58' E 131°00'0 0.0
2018-Jan-21 00:00N 33°58' E 131°00'0 0.0
2018-Jan-20 23:31N 33°58' E 131°00'0 0.0
2018-Jan-20 23:00N 33°58' E 131°00'3 5.3
2018-Jan-20 22:30N 33°56' E 131°02'0 0.0
2018-Jan-20 22:01N 33°56' E 131°02'0 0.0
2018-Jan-20 21:30N 33°56' E 131°02'0 0.0
2018-Jan-20 20:58N 33°56' E 131°02'0 0.1
2018-Jan-20 20:30N 33°56' E 131°02'0 0.0
2018-Jan-20 20:01N 33°56' E 131°02'0 0.0
2018-Jan-20 19:30N 33°56' E 131°02'0 0.0
2018-Jan-20 19:01N 33°56' E 131°02'0 0.0
2018-Jan-20 18:30N 33°56' E 131°02'0 0.0
2018-Jan-20 18:01N 33°56' E 131°02'0 0.0
2018-Jan-20 17:31N 33°56' E 131°02'0 0.0
2018-Jan-20 17:00N 33°56' E 131°02'0 0.1
2018-Jan-20 16:30N 33°56' E 131°02'0 0.0
2018-Jan-20 16:01N 33°56' E 131°02'0 0.0
2018-Jan-20 15:30N 33°56' E 131°02'0 0.0
2018-Jan-20 15:00N 33°56' E 131°02'0 0.2
2018-Jan-20 14:31N 33°56' E 131°02'3 6.9
2018-Jan-20 14:01N 33°58' E 130°59'5 9.9
2018-Jan-20 13:31N 33°54' E 130°55'510.4
2018-Jan-20 13:01N 33°58' E 130°50'612.7
2018-Jan-20 12:30N 33°58' E 130°43'713.1
2018-Jan-20 12:00N 33°57' E 130°35'611.9
2018-Jan-20 11:31N 33°54' E 130°28'612.0
2018-Jan-20 11:00N 33°50' E 130°23'612.8
2018-Jan-20 10:30N 33°46' E 130°18'612.6
2018-Jan-20 10:01N 33°42' E 130°12'612.6
2018-Jan-20 09:30N 33°38' E 130°06'612.5
2018-Jan-20 09:01N 33°36' E 129°59'6 1.3
2018-Jan-20 04:38N 33°34' E 129°52'311.7
2018-Jan-20 04:21N 33°35' E 129°56'412.8
2018-Jan-20 04:00N 33°36' E 130°00'712.9
2018-Jan-20 03:30N 33°39' E 130°08'612.9
2018-Jan-20 03:01N 33°43' E 130°14'713.2
2018-Jan-20 02:31N 33°47' E 130°20'713.3
2018-Jan-20 02:01N 33°52' E 130°26'612.5
2018-Jan-20 01:30N 33°56' E 130°31'713.1
2018-Jan-20 01:00N 33°58' E 130°39'612.5
2018-Jan-20 00:30N 33°57' E 130°46'1 1.2
2018-Jan-20 00:00N 33°57' E 130°46'510.6
2018-Jan-19 23:31N 33°56' E 130°53'3 6.6
2018-Jan-19 23:01N 33°57' E 130°57'4 7.6
2018-Jan-19 22:31N 33°59' E 131°00'510.7
2018-Jan-19 22:00N 33°56' E 131°06'713.6
2018-Jan-19 21:30N 33°53' E 131°13'713.6
2018-Jan-19 21:00N 33°51' E 131°21'713.4
2018-Jan-19 20:30N 33°51' E 131°29'713.3
2018-Jan-19 20:01N 33°50' E 131°37'713.0
2018-Jan-19 19:31N 33°50' E 131°45'712.9
2018-Jan-19 19:00N 33°49' E 131°53'812.1
2018-Jan-19 18:20N 33°46' E 132°01'513.5
2018-Jan-19 17:56N 33°48' E 132°08'613.8
2018-Jan-19 17:29N 33°50' E 132°14'713.9
2018-Jan-19 16:59N 33°51' E 132°23'713.8
2018-Jan-19 16:28N 33°53' E 132°31'713.4
2018-Jan-19 15:58N 33°56' E 132°38'612.7
2018-Jan-19 15:30N 33°59' E 132°44'7511.7
2018-Jan-19 09:08N 34°26' E 134°08'513.0
2018-Jan-19 08:45N 34°25' E 134°14'312.8
2018-Jan-19 08:29N 34°25' E 134°18'612.8
2018-Jan-19 08:01N 34°27' E 134°25'612.9
2018-Jan-19 07:30N 34°29' E 134°32'612.8
2018-Jan-19 07:01N 34°32' E 134°39'612.8
2018-Jan-19 06:30N 34°34' E 134°47'611.7
2018-Jan-19 06:00N 34°36' E 134°53'611.5
2018-Jan-19 05:31N 34°38' E 134°60'510.7
2018-Jan-19 05:00N 34°36' E 135°06'713.3
2018-Jan-19 04:31N 34°37' E 135°14'713.2
2018-Jan-19 04:00N 34°38' E 135°22'3 5.1
2018-Jan-19 03:30N 34°38' E 135°25'1 2.2
2018-Jan-19 03:00N 34°38' E 135°24'612.2
2018-Jan-19 02:30N 34°39' E 135°17'2 3.4
2018-Jan-19 02:00N 34°39' E 135°15'0 0.0
2018-Jan-19 01:31N 34°39' E 135°15'0 0.0
2018-Jan-19 01:01N 34°39' E 135°15'0 0.0
2018-Jan-19 00:30N 34°39' E 135°15'0 0.0
2018-Jan-19 00:01N 34°39' E 135°15'0 0.0
2018-Jan-18 23:31N 34°39' E 135°15'3 6.0
2018-Jan-18 23:00N 34°37' E 135°12'612.7
2018-Jan-18 22:31N 34°35' E 135°05'510.1
2018-Jan-18 22:00N 34°37' E 134°59'612.1
2018-Jan-18 21:30N 34°34' E 134°53'612.6
2018-Jan-18 21:01N 34°32' E 134°46'612.6
2018-Jan-18 20:30N 34°30' E 134°39'612.6
2018-Jan-18 20:00N 34°27' E 134°31'612.8
2018-Jan-18 19:30N 34°25' E 134°24'712.9
2018-Jan-18 19:00N 34°24' E 134°16'7512.8
2018-Jan-18 13:09N 34°04' E 132°49'314.2
2018-Jan-18 12:58N 34°02' E 132°47'714.4
2018-Jan-18 12:30N 33°57' E 132°42'714.0
2018-Jan-18 12:00N 33°53' E 132°34'713.9
2018-Jan-18 11:28N 33°51' E 132°26'713.9
2018-Jan-18 10:57N 33°50' E 132°17'713.4
2018-Jan-18 10:24N 33°48' E 132°09'513.2
2018-Jan-18 10:00N 33°46' E 132°03'612.5
2018-Jan-18 09:30N 33°50' E 131°57'713.1
2018-Jan-18 09:00N 33°54' E 131°51'613.0
2018-Jan-18 08:30N 33°58' E 131°45'4 2.6
2018-Jan-18 06:48N 34°02' E 131°47'0 0.0
2018-Jan-18 06:09N 34°02' E 131°47'0 0.0
2018-Jan-18 05:50N 34°02' E 131°47'0 0.0
2018-Jan-18 05:07N 34°02' E 131°47'0 0.0
2018-Jan-18 04:58N 34°02' E 131°47'1 2.2
2018-Jan-18 04:30N 34°01' E 131°47'611.9
2018-Jan-18 04:00N 33°58' E 131°41'713.7
2018-Jan-18 03:31N 33°56' E 131°33'713.6
2018-Jan-18 03:01N 33°54' E 131°25'713.4
2018-Jan-18 02:30N 33°52' E 131°17'4 8.9
2018-Jan-18 02:01N 33°56' E 131°14'0 0.0
2018-Jan-18 01:30N 33°56' E 131°14'0 0.0
2018-Jan-18 01:01N 33°56' E 131°14'0 0.0
2018-Jan-18 00:01N 33°56' E 131°14'0 0.0
2018-Jan-17 23:58N 33°56' E 131°14'  
Track history (hours):
 
Tides and Currents Weather Stations Pressure Air Temp Water Temp Dewpoint Dewpoint Depression Visibility Wind Speed Wind Dir Waves Ship Positions

Tenma

Last reported at 2018-Jan-24 01:30 UTC. Time now 2018-Jan-24 01:47 UTC.
Position N 34°38' E 135°23'.

Length 80 m; draft 3.6 m.

Type: Cargo ship. MMSI: 431402072.

Date/timePositionNaut miles runAvg speedWind from/ knotsBaromVisibWave heightAir tempDewpointWater temp
2018-Jan-24 01:30N 34°38' E 135°23'612.7
2018-Jan-24 01:00N 34°39' E 135°16'1 2.7
2018-Jan-24 00:30N 34°40' E 135°14'0 0.0
2018-Jan-24 00:00N 34°40' E 135°14'0 0.0
2018-Jan-23 23:30N 34°40' E 135°14'0 0.5
2018-Jan-23 23:00N 34°39' E 135°15'1 2.3
2018-Jan-23 22:30N 34°38' E 135°15'0 0.0
2018-Jan-23 22:00N 34°38' E 135°15'0 0.0
2018-Jan-23 21:30N 34°38' E 135°15'0 0.0
2018-Jan-23 21:00N 34°38' E 135°15'0 0.0
2018-Jan-23 20:30N 34°38' E 135°15'0 0.0
2018-Jan-23 20:00N 34°38' E 135°15'0 0.0
2018-Jan-23 19:30N 34°38' E 135°15'0 0.0
2018-Jan-23 19:00N 34°38' E 135°15'0 0.1
2018-Jan-23 18:30N 34°38' E 135°15'510.7
2018-Jan-23 18:00N 34°36' E 135°09'611.7
2018-Jan-23 17:30N 34°36' E 135°02'511.0
2018-Jan-23 17:00N 34°35' E 134°55'611.5
2018-Jan-23 16:30N 34°33' E 134°49'612.0
2018-Jan-23 16:00N 34°30' E 134°42'612.4
2018-Jan-23 15:30N 34°28' E 134°35'612.7
2018-Jan-23 15:00N 34°26' E 134°28'612.7
2018-Jan-23 14:30N 34°24' E 134°21'81 9.3
2018-Jan-23 05:45N 34°01' E 132°46'613.6
2018-Jan-23 05:17N 33°55' E 132°43'412.4
2018-Jan-23 04:57N 33°52' E 132°41'1 0.9
2018-Jan-23 03:25N 33°51' E 132°42'8 8.3
2018-Jan-23 02:29N 33°58' E 132°44'82 4.0
2018-Jan-22 06:09N 34°25' E 134°18'212.8
2018-Jan-22 05:59N 34°25' E 134°20'712.9
2018-Jan-22 05:28N 34°27' E 134°28'613.3
2018-Jan-22 05:00N 34°29' E 134°35'713.5
2018-Jan-22 04:30N 34°32' E 134°43'714.8
2018-Jan-22 04:01N 34°35' E 134°51'715.0
2018-Jan-22 03:31N 34°38' E 134°59'714.0
2018-Jan-22 03:00N 34°37' E 135°08'612.7
2018-Jan-22 02:30N 34°39' E 135°15'1 1.6
2018-Jan-22 02:00N 34°39' E 135°14'0 0.0
2018-Jan-22 01:31N 34°39' E 135°14'0 0.0
2018-Jan-22 01:01N 34°39' E 135°14'0 0.2
2018-Jan-22 00:30N 34°39' E 135°15'1 1.5
2018-Jan-22 00:00N 34°39' E 135°15'0 0.0
2018-Jan-21 23:31N 34°39' E 135°15'0 0.0
2018-Jan-21 23:00N 34°39' E 135°15'0 0.0
2018-Jan-21 22:30N 34°39' E 135°15'0 0.0
2018-Jan-21 22:00N 34°39' E 135°15'0 0.0
2018-Jan-21 21:30N 34°39' E 135°15'0 0.0
2018-Jan-21 21:00N 34°39' E 135°15'0 0.0
2018-Jan-21 20:31N 34°39' E 135°15'0 0.0
2018-Jan-21 20:00N 34°39' E 135°15'3 5.4
2018-Jan-21 19:30N 34°37' E 135°12'612.8
2018-Jan-21 19:01N 34°35' E 135°05'714.0
2018-Jan-21 18:31N 34°36' E 134°56'714.3
2018-Jan-21 18:00N 34°33' E 134°49'713.0
2018-Jan-21 17:31N 34°30' E 134°41'612.8
2018-Jan-21 17:00N 34°28' E 134°34'612.8
2018-Jan-21 16:30N 34°25' E 134°27'612.7
2018-Jan-21 16:00N 34°24' E 134°19'7910.9
2018-Jan-21 08:45N 34°02' E 132°47'311.2
2018-Jan-21 08:30N 33°60' E 132°45'510.7
2018-Jan-21 08:00N 33°56' E 132°41'611.2
2018-Jan-21 07:29N 33°53' E 132°35'911.9
2018-Jan-21 06:43N 33°50' E 132°24'311.5
2018-Jan-21 06:27N 33°50' E 132°21'612.3
2018-Jan-21 05:56N 33°49' E 132°13'612.2
2018-Jan-21 05:27N 33°47' E 132°07'712.9
2018-Jan-21 04:55N 33°45' E 131°58'613.6
2018-Jan-21 04:30N 33°46' E 131°52'713.8
2018-Jan-21 04:01N 33°48' E 131°44'713.8
2018-Jan-21 03:31N 33°49' E 131°36'713.3
2018-Jan-21 03:00N 33°51' E 131°28'713.1
2018-Jan-21 02:30N 33°52' E 131°20'612.7
2018-Jan-21 02:00N 33°52' E 131°13'612.3
2018-Jan-21 01:31N 33°56' E 131°06'611.5
2018-Jan-21 01:01N 33°58' E 131°00'0 0.3
2018-Jan-21 00:30N 33°58' E 131°00'0 0.0
2018-Jan-21 00:00N 33°58' E 131°00'0 0.0
2018-Jan-20 23:31N 33°58' E 131°00'0 0.0
2018-Jan-20 23:00N 33°58' E 131°00'3 5.3
2018-Jan-20 22:30N 33°56' E 131°02'0 0.0
2018-Jan-20 22:01N 33°56' E 131°02'0 0.0
2018-Jan-20 21:30N 33°56' E 131°02'0 0.0
2018-Jan-20 20:58N 33°56' E 131°02'0 0.1
2018-Jan-20 20:30N 33°56' E 131°02'0 0.0
2018-Jan-20 20:01N 33°56' E 131°02'0 0.0
2018-Jan-20 19:30N 33°56' E 131°02'0 0.0
2018-Jan-20 19:01N 33°56' E 131°02'0 0.0
2018-Jan-20 18:30N 33°56' E 131°02'0 0.0
2018-Jan-20 18:01N 33°56' E 131°02'0 0.0
2018-Jan-20 17:31N 33°56' E 131°02'0 0.0
2018-Jan-20 17:00N 33°56' E 131°02'0 0.1
2018-Jan-20 16:30N 33°56' E 131°02'0 0.0
2018-Jan-20 16:01N 33°56' E 131°02'0 0.0
2018-Jan-20 15:30N 33°56' E 131°02'0 0.0
2018-Jan-20 15:00N 33°56' E 131°02'0 0.2
2018-Jan-20 14:31N 33°56' E 131°02'3 6.9
2018-Jan-20 14:01N 33°58' E 130°59'5 9.9
2018-Jan-20 13:31N 33°54' E 130°55'510.4
2018-Jan-20 13:01N 33°58' E 130°50'612.7
2018-Jan-20 12:30N 33°58' E 130°43'713.1
2018-Jan-20 12:00N 33°57' E 130°35'611.9
2018-Jan-20 11:31N 33°54' E 130°28'612.0
2018-Jan-20 11:00N 33°50' E 130°23'612.8
2018-Jan-20 10:30N 33°46' E 130°18'612.6
2018-Jan-20 10:01N 33°42' E 130°12'612.6
2018-Jan-20 09:30N 33°38' E 130°06'612.5
2018-Jan-20 09:01N 33°36' E 129°59'6 1.3
2018-Jan-20 04:38N 33°34' E 129°52'311.7
2018-Jan-20 04:21N 33°35' E 129°56'412.8
2018-Jan-20 04:00N 33°36' E 130°00'712.9
2018-Jan-20 03:30N 33°39' E 130°08'612.9
2018-Jan-20 03:01N 33°43' E 130°14'713.2
2018-Jan-20 02:31N 33°47' E 130°20'713.3
2018-Jan-20 02:01N 33°52' E 130°26'612.5
2018-Jan-20 01:30N 33°56' E 130°31'713.1
2018-Jan-20 01:00N 33°58' E 130°39'612.5
2018-Jan-20 00:30N 33°57' E 130°46'1 1.2
2018-Jan-20 00:00N 33°57' E 130°46'510.6
2018-Jan-19 23:31N 33°56' E 130°53'3 6.6
2018-Jan-19 23:01N 33°57' E 130°57'4 7.6
2018-Jan-19 22:31N 33°59' E 131°00'510.7
2018-Jan-19 22:00N 33°56' E 131°06'713.6
2018-Jan-19 21:30N 33°53' E 131°13'713.6
2018-Jan-19 21:00N 33°51' E 131°21'713.4
2018-Jan-19 20:30N 33°51' E 131°29'713.3
2018-Jan-19 20:01N 33°50' E 131°37'713.0
2018-Jan-19 19:31N 33°50' E 131°45'712.9
2018-Jan-19 19:00N 33°49' E 131°53'812.1
2018-Jan-19 18:20N 33°46' E 132°01'513.5
2018-Jan-19 17:56N 33°48' E 132°08'613.8
2018-Jan-19 17:29N 33°50' E 132°14'713.9
2018-Jan-19 16:59N 33°51' E 132°23'713.8
2018-Jan-19 16:28N 33°53' E 132°31'713.4
2018-Jan-19 15:58N 33°56' E 132°38'612.7
2018-Jan-19 15:30N 33°59' E 132°44'7511.7
2018-Jan-19 09:08N 34°26' E 134°08'513.0
2018-Jan-19 08:45N 34°25' E 134°14'312.8
2018-Jan-19 08:29N 34°25' E 134°18'612.8
2018-Jan-19 08:01N 34°27' E 134°25'612.9
2018-Jan-19 07:30N 34°29' E 134°32'612.8
2018-Jan-19 07:01N 34°32' E 134°39'612.8
2018-Jan-19 06:30N 34°34' E 134°47'611.7
2018-Jan-19 06:00N 34°36' E 134°53'611.5
2018-Jan-19 05:31N 34°38' E 134°60'510.7
2018-Jan-19 05:00N 34°36' E 135°06'713.3
2018-Jan-19 04:31N 34°37' E 135°14'713.2
2018-Jan-19 04:00N 34°38' E 135°22'3 5.1
2018-Jan-19 03:30N 34°38' E 135°25'1 2.2
2018-Jan-19 03:00N 34°38' E 135°24'612.2
2018-Jan-19 02:30N 34°39' E 135°17'2 3.4
2018-Jan-19 02:00N 34°39' E 135°15'0 0.0
2018-Jan-19 01:31N 34°39' E 135°15'0 0.0
2018-Jan-19 01:01N 34°39' E 135°15'0 0.0
2018-Jan-19 00:30N 34°39' E 135°15'0 0.0
2018-Jan-19 00:01N 34°39' E 135°15'0 0.0
2018-Jan-18 23:31N 34°39' E 135°15'3 6.0
2018-Jan-18 23:00N 34°37' E 135°12'612.7
2018-Jan-18 22:31N 34°35' E 135°05'510.1
2018-Jan-18 22:00N 34°37' E 134°59'612.1
2018-Jan-18 21:30N 34°34' E 134°53'612.6
2018-Jan-18 21:01N 34°32' E 134°46'612.6
2018-Jan-18 20:30N 34°30' E 134°39'612.6
2018-Jan-18 20:00N 34°27' E 134°31'612.8
2018-Jan-18 19:30N 34°25' E 134°24'712.9
2018-Jan-18 19:00N 34°24' E 134°16'7512.8
2018-Jan-18 13:09N 34°04' E 132°49'314.2
2018-Jan-18 12:58N 34°02' E 132°47'714.4
2018-Jan-18 12:30N 33°57' E 132°42'714.0
2018-Jan-18 12:00N 33°53' E 132°34'713.9
2018-Jan-18 11:28N 33°51' E 132°26'713.9
2018-Jan-18 10:57N 33°50' E 132°17'713.4
2018-Jan-18 10:24N 33°48' E 132°09'513.2
2018-Jan-18 10:00N 33°46' E 132°03'612.5
2018-Jan-18 09:30N 33°50' E 131°57'713.1
2018-Jan-18 09:00N 33°54' E 131°51'613.0
2018-Jan-18 08:30N 33°58' E 131°45'4 2.6
2018-Jan-18 06:48N 34°02' E 131°47'0 0.0
2018-Jan-18 06:09N 34°02' E 131°47'0 0.0
2018-Jan-18 05:50N 34°02' E 131°47'0 0.0
2018-Jan-18 05:07N 34°02' E 131°47'0 0.0
2018-Jan-18 04:58N 34°02' E 131°47'1 2.2
2018-Jan-18 04:30N 34°01' E 131°47'611.9
2018-Jan-18 04:00N 33°58' E 131°41'713.7
2018-Jan-18 03:31N 33°56' E 131°33'713.6
2018-Jan-18 03:01N 33°54' E 131°25'713.4
2018-Jan-18 02:30N 33°52' E 131°17'4 8.9
2018-Jan-18 02:01N 33°56' E 131°14'0 0.0
2018-Jan-18 01:30N 33°56' E 131°14'0 0.0
2018-Jan-18 01:01N 33°56' E 131°14'0 0.0
2018-Jan-18 00:01N 33°56' E 131°14'0 0.0
2018-Jan-17 23:58N 33°56' E 131°14'  

Dump ship's entire track history